sensor_id;sensor_type;location;lat;lon;timestamp;temperature;humidity
42743;DHT22;28397;44.552;-0.848;2022-12-29T00:02:17;11.10;99.90
42743;DHT22;28397;44.552;-0.848;2022-12-29T00:04:43;11.10;99.90
42743;DHT22;28397;44.552;-0.848;2022-12-29T00:07:09;10.90;99.90
42743;DHT22;28397;44.552;-0.848;2022-12-29T00:09:35;10.80;99.90
42743;DHT22;28397;44.552;-0.848;2022-12-29T00:12:03;10.80;99.90
42743;DHT22;28397;44.552;-0.848;2022-12-29T00:14:29;11.00;99.90
42743;DHT22;28397;44.552;-0.848;2022-12-29T00:17:14;10.90;99.90
42743;DHT22;28397;44.552;-0.848;2022-12-29T00:19:40;10.70;99.90
42743;DHT22;28397;44.552;-0.848;2022-12-29T00:22:24;10.70;99.90
42743;DHT22;28397;44.552;-0.848;2022-12-29T00:25:10;10.60;99.90
42743;DHT22;28397;44.552;-0.848;2022-12-29T00:27:54;10.80;99.90
42743;DHT22;28397;44.552;-0.848;2022-12-29T00:30:39;10.70;99.90
42743;DHT22;28397;44.552;-0.848;2022-12-29T00:33:25;10.80;99.90
42743;DHT22;28397;44.552;-0.848;2022-12-29T00:38:37;10.50;99.90
42743;DHT22;28397;44.552;-0.848;2022-12-29T00:41:23;10.40;99.90
42743;DHT22;28397;44.552;-0.848;2022-12-29T00:44:07;10.20;99.90
42743;DHT22;28397;44.552;-0.848;2022-12-29T00:46:40;10.00;99.90
42743;DHT22;28397;44.552;-0.848;2022-12-29T00:49:07;10.00;99.90
42743;DHT22;28397;44.552;-0.848;2022-12-29T00:51:52;9.90;99.90
42743;DHT22;28397;44.552;-0.848;2022-12-29T00:54:18;9.70;99.90
42743;DHT22;28397;44.552;-0.848;2022-12-29T00:56:46;9.60;99.90
42743;DHT22;28397;44.552;-0.848;2022-12-29T00:59:13;9.40;99.90
42743;DHT22;28397;44.552;-0.848;2022-12-29T01:01:39;9.50;99.90
42743;DHT22;28397;44.552;-0.848;2022-12-29T01:04:05;9.50;99.90
42743;DHT22;28397;44.552;-0.848;2022-12-29T01:06:32;9.40;99.90
42743;DHT22;28397;44.552;-0.848;2022-12-29T01:08:58;9.30;99.90
42743;DHT22;28397;44.552;-0.848;2022-12-29T01:11:42;9.30;99.90
42743;DHT22;28397;44.552;-0.848;2022-12-29T01:14:08;9.30;99.90
42743;DHT22;28397;44.552;-0.848;2022-12-29T01:16:33;9.20;99.90
42743;DHT22;28397;44.552;-0.848;2022-12-29T01:18:59;9.20;99.90
42743;DHT22;28397;44.552;-0.848;2022-12-29T01:21:25;9.20;99.90
42743;DHT22;28397;44.552;-0.848;2022-12-29T01:23:51;9.20;99.90
42743;DHT22;28397;44.552;-0.848;2022-12-29T01:26:17;9.00;99.90
42743;DHT22;28397;44.552;-0.848;2022-12-29T01:28:43;8.90;99.90
42743;DHT22;28397;44.552;-0.848;2022-12-29T01:31:10;9.00;99.90
42743;DHT22;28397;44.552;-0.848;2022-12-29T01:33:36;9.00;99.90
42743;DHT22;28397;44.552;-0.848;2022-12-29T01:36:08;9.00;99.90
42743;DHT22;28397;44.552;-0.848;2022-12-29T01:38:35;9.10;99.90
42743;DHT22;28397;44.552;-0.848;2022-12-29T01:41:02;9.00;99.90
42743;DHT22;28397;44.552;-0.848;2022-12-29T01:48:42;9.20;99.90
42743;DHT22;28397;44.552;-0.848;2022-12-29T01:51:08;9.30;99.90
42743;DHT22;28397;44.552;-0.848;2022-12-29T01:53:35;9.10;99.90
42743;DHT22;28397;44.552;-0.848;2022-12-29T01:56:04;9.10;99.90
42743;DHT22;28397;44.552;-0.848;2022-12-29T01:58:35;9.10;99.90
42743;DHT22;28397;44.552;-0.848;2022-12-29T02:01:04;9.00;99.90
42743;DHT22;28397;44.552;-0.848;2022-12-29T02:03:30;9.00;99.90
42743;DHT22;28397;44.552;-0.848;2022-12-29T02:06:11;9.00;99.90
42743;DHT22;28397;44.552;-0.848;2022-12-29T02:08:38;9.10;99.90
42743;DHT22;28397;44.552;-0.848;2022-12-29T02:11:05;9.10;99.90
42743;DHT22;28397;44.552;-0.848;2022-12-29T02:13:31;9.20;99.90
42743;DHT22;28397;44.552;-0.848;2022-12-29T02:28:03;8.90;99.90
42743;DHT22;28397;44.552;-0.848;2022-12-29T02:33:36;8.70;99.90
42743;DHT22;28397;44.552;-0.848;2022-12-29T02:38:51;8.90;99.90
42743;DHT22;28397;44.552;-0.848;2022-12-29T02:41:48;9.10;99.90
42743;DHT22;28397;44.552;-0.848;2022-12-29T02:53:11;9.20;99.90
42743;DHT22;28397;44.552;-0.848;2022-12-29T02:55:18;9.20;99.90
42743;DHT22;28397;44.552;-0.848;2022-12-29T02:57:43;9.30;99.90
42743;DHT22;28397;44.552;-0.848;2022-12-29T03:00:15;9.30;99.90
42743;DHT22;28397;44.552;-0.848;2022-12-29T03:03:32;9.40;99.90
42743;DHT22;28397;44.552;-0.848;2022-12-29T03:11:59;9.10;99.90
42743;DHT22;28397;44.552;-0.848;2022-12-29T03:17:28;9.10;99.90
42743;DHT22;28397;44.552;-0.848;2022-12-29T03:20:01;9.10;99.90
42743;DHT22;28397;44.552;-0.848;2022-12-29T03:22:31;9.10;99.90
42743;DHT22;28397;44.552;-0.848;2022-12-29T03:25:03;9.00;99.90
42743;DHT22;28397;44.552;-0.848;2022-12-29T03:27:38;9.10;99.90
42743;DHT22;28397;44.552;-0.848;2022-12-29T03:30:05;9.20;99.90
42743;DHT22;28397;44.552;-0.848;2022-12-29T03:32:47;9.20;99.90
42743;DHT22;28397;44.552;-0.848;2022-12-29T03:35:17;9.30;99.90
42743;DHT22;28397;44.552;-0.848;2022-12-29T03:40:31;9.50;99.90
42743;DHT22;28397;44.552;-0.848;2022-12-29T03:42:57;9.50;99.90
42743;DHT22;28397;44.552;-0.848;2022-12-29T03:45:24;9.60;99.90
42743;DHT22;28397;44.552;-0.848;2022-12-29T03:47:50;9.60;99.90
42743;DHT22;28397;44.552;-0.848;2022-12-29T03:50:17;9.70;99.90
42743;DHT22;28397;44.552;-0.848;2022-12-29T03:52:43;9.80;99.90
42743;DHT22;28397;44.552;-0.848;2022-12-29T03:55:09;9.70;99.90
42743;DHT22;28397;44.552;-0.848;2022-12-29T03:57:34;9.80;99.90
42743;DHT22;28397;44.552;-0.848;2022-12-29T04:00:00;9.70;99.90
42743;DHT22;28397;44.552;-0.848;2022-12-29T04:02:26;9.70;99.90
42743;DHT22;28397;44.552;-0.848;2022-12-29T04:04:52;9.60;99.90
42743;DHT22;28397;44.552;-0.848;2022-12-29T04:07:18;9.70;99.90
42743;DHT22;28397;44.552;-0.848;2022-12-29T04:09:43;9.80;99.90
42743;DHT22;28397;44.552;-0.848;2022-12-29T04:12:09;9.80;99.90
42743;DHT22;28397;44.552;-0.848;2022-12-29T04:14:35;9.80;99.90
42743;DHT22;28397;44.552;-0.848;2022-12-29T04:17:00;9.80;99.90
42743;DHT22;28397;44.552;-0.848;2022-12-29T04:19:26;9.80;99.90
42743;DHT22;28397;44.552;-0.848;2022-12-29T04:21:52;9.80;99.90
42743;DHT22;28397;44.552;-0.848;2022-12-29T04:24:17;9.80;99.90
42743;DHT22;28397;44.552;-0.848;2022-12-29T04:26:43;9.70;99.90
42743;DHT22;28397;44.552;-0.848;2022-12-29T04:29:09;9.70;99.90
42743;DHT22;28397;44.552;-0.848;2022-12-29T04:31:34;9.80;99.90
42743;DHT22;28397;44.552;-0.848;2022-12-29T04:34:00;9.70;99.90
42743;DHT22;28397;44.552;-0.848;2022-12-29T04:36:26;9.80;99.90
42743;DHT22;28397;44.552;-0.848;2022-12-29T04:38:52;9.70;99.90
42743;DHT22;28397;44.552;-0.848;2022-12-29T04:41:17;9.80;99.90
42743;DHT22;28397;44.552;-0.848;2022-12-29T04:43:43;9.90;99.90
42743;DHT22;28397;44.552;-0.848;2022-12-29T04:46:09;9.90;99.90
42743;DHT22;28397;44.552;-0.848;2022-12-29T04:48:34;10.00;99.90
42743;DHT22;28397;44.552;-0.848;2022-12-29T04:51:00;9.90;99.90
42743;DHT22;28397;44.552;-0.848;2022-12-29T04:53:26;9.90;99.90
42743;DHT22;28397;44.552;-0.848;2022-12-29T04:55:52;9.90;99.90
42743;DHT22;28397;44.552;-0.848;2022-12-29T04:58:19;9.90;99.90
42743;DHT22;28397;44.552;-0.848;2022-12-29T05:00:45;10.00;99.90
42743;DHT22;28397;44.552;-0.848;2022-12-29T05:03:11;10.00;99.90
42743;DHT22;28397;44.552;-0.848;2022-12-29T05:05:36;10.10;99.90
42743;DHT22;28397;44.552;-0.848;2022-12-29T05:08:02;10.10;99.90
42743;DHT22;28397;44.552;-0.848;2022-12-29T05:10:28;10.10;99.90
42743;DHT22;28397;44.552;-0.848;2022-12-29T05:12:54;10.20;99.90
42743;DHT22;28397;44.552;-0.848;2022-12-29T05:15:20;10.20;99.90
42743;DHT22;28397;44.552;-0.848;2022-12-29T05:17:45;10.20;99.90
42743;DHT22;28397;44.552;-0.848;2022-12-29T05:20:11;10.20;99.90
42743;DHT22;28397;44.552;-0.848;2022-12-29T05:22:37;10.20;99.90
42743;DHT22;28397;44.552;-0.848;2022-12-29T05:25:03;10.20;99.90
42743;DHT22;28397;44.552;-0.848;2022-12-29T05:27:29;10.20;99.90
42743;DHT22;28397;44.552;-0.848;2022-12-29T05:29:54;10.10;99.90
42743;DHT22;28397;44.552;-0.848;2022-12-29T05:32:20;10.10;99.90
42743;DHT22;28397;44.552;-0.848;2022-12-29T05:34:46;10.10;99.90
42743;DHT22;28397;44.552;-0.848;2022-12-29T05:37:12;10.10;99.90
42743;DHT22;28397;44.552;-0.848;2022-12-29T05:39:37;10.10;99.90
42743;DHT22;28397;44.552;-0.848;2022-12-29T05:42:03;10.10;99.90
42743;DHT22;28397;44.552;-0.848;2022-12-29T05:44:29;10.10;99.90
42743;DHT22;28397;44.552;-0.848;2022-12-29T05:46:55;10.20;99.90
42743;DHT22;28397;44.552;-0.848;2022-12-29T05:49:20;10.20;99.90
42743;DHT22;28397;44.552;-0.848;2022-12-29T05:51:46;10.20;99.90
42743;DHT22;28397;44.552;-0.848;2022-12-29T05:54:12;10.30;99.90
42743;DHT22;28397;44.552;-0.848;2022-12-29T05:56:37;10.30;99.90
42743;DHT22;28397;44.552;-0.848;2022-12-29T05:59:03;10.30;99.90
42743;DHT22;28397;44.552;-0.848;2022-12-29T06:01:29;10.30;99.90
42743;DHT22;28397;44.552;-0.848;2022-12-29T06:03:54;10.20;99.90
42743;DHT22;28397;44.552;-0.848;2022-12-29T06:06:20;10.30;99.90
42743;DHT22;28397;44.552;-0.848;2022-12-29T06:08:46;10.30;99.90
42743;DHT22;28397;44.552;-0.848;2022-12-29T06:11:12;10.40;99.90
42743;DHT22;28397;44.552;-0.848;2022-12-29T06:13:38;10.50;99.90
42743;DHT22;28397;44.552;-0.848;2022-12-29T06:16:04;10.50;99.90
42743;DHT22;28397;44.552;-0.848;2022-12-29T06:18:29;10.40;99.90
42743;DHT22;28397;44.552;-0.848;2022-12-29T06:21:03;10.40;99.90
42743;DHT22;28397;44.552;-0.848;2022-12-29T06:23:29;10.30;99.90
42743;DHT22;28397;44.552;-0.848;2022-12-29T06:25:55;10.40;99.90
42743;DHT22;28397;44.552;-0.848;2022-12-29T06:28:20;10.40;99.90
42743;DHT22;28397;44.552;-0.848;2022-12-29T06:30:46;10.40;99.90
42743;DHT22;28397;44.552;-0.848;2022-12-29T06:33:12;10.50;99.90
42743;DHT22;28397;44.552;-0.848;2022-12-29T06:35:38;10.50;99.90
42743;DHT22;28397;44.552;-0.848;2022-12-29T06:38:04;10.50;99.90
42743;DHT22;28397;44.552;-0.848;2022-12-29T06:40:29;10.50;99.90
42743;DHT22;28397;44.552;-0.848;2022-12-29T06:42:55;10.50;99.90
42743;DHT22;28397;44.552;-0.848;2022-12-29T06:45:21;10.50;99.90
42743;DHT22;28397;44.552;-0.848;2022-12-29T06:47:47;10.50;99.90
42743;DHT22;28397;44.552;-0.848;2022-12-29T06:50:12;10.50;99.90
42743;DHT22;28397;44.552;-0.848;2022-12-29T06:52:38;10.50;99.90
42743;DHT22;28397;44.552;-0.848;2022-12-29T06:55:04;10.50;99.90
42743;DHT22;28397;44.552;-0.848;2022-12-29T06:57:30;10.50;99.90
42743;DHT22;28397;44.552;-0.848;2022-12-29T06:59:55;10.50;99.90
42743;DHT22;28397;44.552;-0.848;2022-12-29T07:02:22;10.50;99.90
42743;DHT22;28397;44.552;-0.848;2022-12-29T07:04:47;10.50;99.90
42743;DHT22;28397;44.552;-0.848;2022-12-29T07:07:13;10.50;99.90
42743;DHT22;28397;44.552;-0.848;2022-12-29T07:09:39;10.50;99.90
42743;DHT22;28397;44.552;-0.848;2022-12-29T07:12:05;10.40;99.90
42743;DHT22;28397;44.552;-0.848;2022-12-29T07:14:31;10.40;99.90
42743;DHT22;28397;44.552;-0.848;2022-12-29T07:16:57;10.40;99.90
42743;DHT22;28397;44.552;-0.848;2022-12-29T07:19:23;10.40;99.90
42743;DHT22;28397;44.552;-0.848;2022-12-29T07:21:48;10.40;99.90
42743;DHT22;28397;44.552;-0.848;2022-12-29T07:24:14;10.30;99.90
42743;DHT22;28397;44.552;-0.848;2022-12-29T07:26:40;10.30;99.90
42743;DHT22;28397;44.552;-0.848;2022-12-29T07:29:06;10.30;99.90
42743;DHT22;28397;44.552;-0.848;2022-12-29T07:31:32;10.20;99.90
42743;DHT22;28397;44.552;-0.848;2022-12-29T07:33:58;10.20;99.90
42743;DHT22;28397;44.552;-0.848;2022-12-29T07:36:23;10.20;99.90
42743;DHT22;28397;44.552;-0.848;2022-12-29T07:38:49;10.10;99.90
42743;DHT22;28397;44.552;-0.848;2022-12-29T07:41:14;10.10;99.90
42743;DHT22;28397;44.552;-0.848;2022-12-29T07:43:40;10.10;99.90
42743;DHT22;28397;44.552;-0.848;2022-12-29T07:46:06;10.00;99.90
42743;DHT22;28397;44.552;-0.848;2022-12-29T07:48:32;10.00;99.90
42743;DHT22;28397;44.552;-0.848;2022-12-29T07:51:01;10.00;99.90
42743;DHT22;28397;44.552;-0.848;2022-12-29T07:53:26;10.10;99.90
42743;DHT22;28397;44.552;-0.848;2022-12-29T07:55:52;10.10;99.90
42743;DHT22;28397;44.552;-0.848;2022-12-29T07:58:18;10.10;99.90
42743;DHT22;28397;44.552;-0.848;2022-12-29T08:00:44;10.10;99.90
42743;DHT22;28397;44.552;-0.848;2022-12-29T08:03:09;10.10;99.90
42743;DHT22;28397;44.552;-0.848;2022-12-29T08:05:35;10.10;99.90
42743;DHT22;28397;44.552;-0.848;2022-12-29T08:08:01;10.20;99.90
42743;DHT22;28397;44.552;-0.848;2022-12-29T08:10:27;10.20;99.90
42743;DHT22;28397;44.552;-0.848;2022-12-29T08:12:52;10.30;99.90
42743;DHT22;28397;44.552;-0.848;2022-12-29T08:15:18;10.30;99.90
42743;DHT22;28397;44.552;-0.848;2022-12-29T08:17:44;10.40;99.90
42743;DHT22;28397;44.552;-0.848;2022-12-29T08:20:09;10.40;99.90
42743;DHT22;28397;44.552;-0.848;2022-12-29T08:22:35;10.50;99.90
42743;DHT22;28397;44.552;-0.848;2022-12-29T08:25:01;10.50;99.90
42743;DHT22;28397;44.552;-0.848;2022-12-29T08:27:27;10.50;99.90
42743;DHT22;28397;44.552;-0.848;2022-12-29T08:29:53;10.50;99.90
42743;DHT22;28397;44.552;-0.848;2022-12-29T08:32:19;10.60;99.90
42743;DHT22;28397;44.552;-0.848;2022-12-29T08:34:45;10.60;99.90
42743;DHT22;28397;44.552;-0.848;2022-12-29T08:37:10;10.60;99.90
42743;DHT22;28397;44.552;-0.848;2022-12-29T08:39:36;10.70;99.90
42743;DHT22;28397;44.552;-0.848;2022-12-29T08:42:02;10.70;99.90
42743;DHT22;28397;44.552;-0.848;2022-12-29T08:44:27;10.80;99.90
42743;DHT22;28397;44.552;-0.848;2022-12-29T08:46:53;10.80;99.90
42743;DHT22;28397;44.552;-0.848;2022-12-29T08:49:19;10.80;99.90
42743;DHT22;28397;44.552;-0.848;2022-12-29T08:51:45;10.80;99.90
42743;DHT22;28397;44.552;-0.848;2022-12-29T08:54:10;10.80;99.90
42743;DHT22;28397;44.552;-0.848;2022-12-29T08:56:36;10.80;99.90
42743;DHT22;28397;44.552;-0.848;2022-12-29T08:59:02;10.90;99.90
42743;DHT22;28397;44.552;-0.848;2022-12-29T09:01:27;10.90;99.90
42743;DHT22;28397;44.552;-0.848;2022-12-29T09:03:53;10.90;99.90
42743;DHT22;28397;44.552;-0.848;2022-12-29T09:06:20;10.90;99.90
42743;DHT22;28397;44.552;-0.848;2022-12-29T09:08:46;11.00;99.90
42743;DHT22;28397;44.552;-0.848;2022-12-29T09:11:16;11.00;99.90
42743;DHT22;28397;44.552;-0.848;2022-12-29T09:13:41;11.00;99.90
42743;DHT22;28397;44.552;-0.848;2022-12-29T09:16:08;11.00;99.90
42743;DHT22;28397;44.552;-0.848;2022-12-29T09:18:33;11.10;99.90
42743;DHT22;28397;44.552;-0.848;2022-12-29T09:21:03;11.10;99.90
42743;DHT22;28397;44.552;-0.848;2022-12-29T09:23:29;11.20;99.90
42743;DHT22;28397;44.552;-0.848;2022-12-29T09:25:55;11.20;99.90
42743;DHT22;28397;44.552;-0.848;2022-12-29T09:28:21;11.20;99.90
42743;DHT22;28397;44.552;-0.848;2022-12-29T09:30:48;11.30;99.90
42743;DHT22;28397;44.552;-0.848;2022-12-29T09:33:13;11.30;99.90
42743;DHT22;28397;44.552;-0.848;2022-12-29T09:35:44;11.40;99.90
42743;DHT22;28397;44.552;-0.848;2022-12-29T09:38:10;11.40;99.90
42743;DHT22;28397;44.552;-0.848;2022-12-29T09:40:37;11.40;99.90
42743;DHT22;28397;44.552;-0.848;2022-12-29T09:49:40;11.40;99.90
42743;DHT22;28397;44.552;-0.848;2022-12-29T09:51:43;11.50;99.90
42743;DHT22;28397;44.552;-0.848;2022-12-29T09:54:32;11.50;99.90
42743;DHT22;28397;44.552;-0.848;2022-12-29T09:57:01;11.50;99.90
42743;DHT22;28397;44.552;-0.848;2022-12-29T09:59:39;11.50;99.90
42743;DHT22;28397;44.552;-0.848;2022-12-29T10:02:12;11.50;99.90
42743;DHT22;28397;44.552;-0.848;2022-12-29T10:04:40;11.50;99.90
42743;DHT22;28397;44.552;-0.848;2022-12-29T10:07:26;11.50;99.90
42743;DHT22;28397;44.552;-0.848;2022-12-29T10:13:16;11.60;99.90
42743;DHT22;28397;44.552;-0.848;2022-12-29T10:23:53;11.70;99.90
42743;DHT22;28397;44.552;-0.848;2022-12-29T10:26:27;11.80;99.90
42743;DHT22;28397;44.552;-0.848;2022-12-29T10:29:05;11.80;99.90
42743;DHT22;28397;44.552;-0.848;2022-12-29T10:34:10;11.90;99.90
42743;DHT22;28397;44.552;-0.848;2022-12-29T10:36:44;11.90;99.90
42743;DHT22;28397;44.552;-0.848;2022-12-29T10:41:44;12.00;99.90
42743;DHT22;28397;44.552;-0.848;2022-12-29T10:44:15;12.00;99.90
42743;DHT22;28397;44.552;-0.848;2022-12-29T10:46:42;12.10;99.90
42743;DHT22;28397;44.552;-0.848;2022-12-29T10:49:17;12.10;99.90
42743;DHT22;28397;44.552;-0.848;2022-12-29T10:51:46;12.20;99.90
42743;DHT22;28397;44.552;-0.848;2022-12-29T10:54:21;12.20;99.90
42743;DHT22;28397;44.552;-0.848;2022-12-29T10:56:52;12.30;99.90
42743;DHT22;28397;44.552;-0.848;2022-12-29T10:59:31;12.30;99.90
42743;DHT22;28397;44.552;-0.848;2022-12-29T11:05:02;12.40;99.90
42743;DHT22;28397;44.552;-0.848;2022-12-29T11:07:30;12.40;99.90
42743;DHT22;28397;44.552;-0.848;2022-12-29T11:13:04;12.70;99.90
42743;DHT22;28397;44.552;-0.848;2022-12-29T11:15:59;12.70;99.90
42743;DHT22;28397;44.552;-0.848;2022-12-29T11:18:38;12.70;99.90
42743;DHT22;28397;44.552;-0.848;2022-12-29T11:21:33;12.60;99.90
42743;DHT22;28397;44.552;-0.848;2022-12-29T11:24:04;12.60;99.90
42743;DHT22;28397;44.552;-0.848;2022-12-29T11:26:31;12.60;99.90
42743;DHT22;28397;44.552;-0.848;2022-12-29T11:31:43;12.60;99.90
42743;DHT22;28397;44.552;-0.848;2022-12-29T11:34:14;12.70;99.90
42743;DHT22;28397;44.552;-0.848;2022-12-29T11:36:41;12.70;99.90
42743;DHT22;28397;44.552;-0.848;2022-12-29T11:39:29;12.80;99.90
42743;DHT22;28397;44.552;-0.848;2022-12-29T11:41:56;12.90;99.90
42743;DHT22;28397;44.552;-0.848;2022-12-29T11:44:23;12.90;99.90
42743;DHT22;28397;44.552;-0.848;2022-12-29T11:46:50;13.00;99.90
42743;DHT22;28397;44.552;-0.848;2022-12-29T11:49:22;13.10;99.90
42743;DHT22;28397;44.552;-0.848;2022-12-29T11:51:50;13.00;99.90
42743;DHT22;28397;44.552;-0.848;2022-12-29T11:54:40;13.00;99.90
42743;DHT22;28397;44.552;-0.848;2022-12-29T11:57:16;13.10;99.90
42743;DHT22;28397;44.552;-0.848;2022-12-29T11:59:48;13.00;99.90
42743;DHT22;28397;44.552;-0.848;2022-12-29T12:05:04;12.80;99.90
42743;DHT22;28397;44.552;-0.848;2022-12-29T12:07:42;12.70;99.90
42743;DHT22;28397;44.552;-0.848;2022-12-29T12:14:02;12.70;99.90
42743;DHT22;28397;44.552;-0.848;2022-12-29T12:16:15;12.60;99.90
42743;DHT22;28397;44.552;-0.848;2022-12-29T12:18:47;12.70;99.90
42743;DHT22;28397;44.552;-0.848;2022-12-29T12:21:30;12.70;99.90
42743;DHT22;28397;44.552;-0.848;2022-12-29T12:27:28;12.70;99.90
42743;DHT22;28397;44.552;-0.848;2022-12-29T12:29:59;13.00;99.90
42743;DHT22;28397;44.552;-0.848;2022-12-29T12:34:54;13.20;99.90
42743;DHT22;28397;44.552;-0.848;2022-12-29T12:40:38;13.20;99.90
42743;DHT22;28397;44.552;-0.848;2022-12-29T12:45:49;13.20;99.90
42743;DHT22;28397;44.552;-0.848;2022-12-29T12:54:07;13.00;99.90
42743;DHT22;28397;44.552;-0.848;2022-12-29T13:08:01;12.60;99.90
42743;DHT22;28397;44.552;-0.848;2022-12-29T13:24:12;12.30;99.90
42743;DHT22;28397;44.552;-0.848;2022-12-29T13:26:41;12.30;99.90
42743;DHT22;28397;44.552;-0.848;2022-12-29T13:29:22;12.30;99.90
42743;DHT22;28397;44.552;-0.848;2022-12-29T13:37:19;12.20;99.90
42743;DHT22;28397;44.552;-0.848;2022-12-29T13:39:52;12.20;99.90
42743;DHT22;28397;44.552;-0.848;2022-12-29T13:42:21;12.30;99.90
42743;DHT22;28397;44.552;-0.848;2022-12-29T13:44:56;12.20;99.90
42743;DHT22;28397;44.552;-0.848;2022-12-29T13:50:27;12.20;99.90
42743;DHT22;28397;44.552;-0.848;2022-12-29T13:58:32;12.20;99.90
42743;DHT22;28397;44.552;-0.848;2022-12-29T14:03:50;12.30;99.90
42743;DHT22;28397;44.552;-0.848;2022-12-29T14:06:24;12.20;99.90
42743;DHT22;28397;44.552;-0.848;2022-12-29T14:08:59;12.20;99.90
42743;DHT22;28397;44.552;-0.848;2022-12-29T14:11:39;12.20;99.90
42743;DHT22;28397;44.552;-0.848;2022-12-29T14:14:18;12.20;99.90
42743;DHT22;28397;44.552;-0.848;2022-12-29T14:16:46;12.20;99.90
42743;DHT22;28397;44.552;-0.848;2022-12-29T14:21:58;12.10;99.90
42743;DHT22;28397;44.552;-0.848;2022-12-29T14:29:48;12.00;99.90
42743;DHT22;28397;44.552;-0.848;2022-12-29T14:34:59;12.00;99.90
42743;DHT22;28397;44.552;-0.848;2022-12-29T14:42:34;11.90;99.90
42743;DHT22;28397;44.552;-0.848;2022-12-29T14:47:39;11.80;99.90
42743;DHT22;28397;44.552;-0.848;2022-12-29T14:53:02;11.80;99.90
42743;DHT22;28397;44.552;-0.848;2022-12-29T14:58:12;11.70;99.90
42743;DHT22;28397;44.552;-0.848;2022-12-29T15:00:40;11.60;99.90
42743;DHT22;28397;44.552;-0.848;2022-12-29T15:03:13;11.60;99.90
42743;DHT22;28397;44.552;-0.848;2022-12-29T15:08:33;11.50;99.90
42743;DHT22;28397;44.552;-0.848;2022-12-29T15:11:17;11.50;99.90
42743;DHT22;28397;44.552;-0.848;2022-12-29T15:13:44;11.50;99.90
42743;DHT22;28397;44.552;-0.848;2022-12-29T15:16:25;11.50;99.90
42743;DHT22;28397;44.552;-0.848;2022-12-29T15:18:52;11.50;99.90
42743;DHT22;28397;44.552;-0.848;2022-12-29T15:21:24;11.40;99.90
42743;DHT22;28397;44.552;-0.848;2022-12-29T15:23:51;11.40;99.90
42743;DHT22;28397;44.552;-0.848;2022-12-29T15:26:16;11.40;99.90
42743;DHT22;28397;44.552;-0.848;2022-12-29T15:28:48;11.40;99.90
42743;DHT22;28397;44.552;-0.848;2022-12-29T15:31:23;11.30;99.90
42743;DHT22;28397;44.552;-0.848;2022-12-29T15:33:53;11.30;99.90
42743;DHT22;28397;44.552;-0.848;2022-12-29T15:36:20;11.30;99.90
42743;DHT22;28397;44.552;-0.848;2022-12-29T15:38:47;11.20;99.90
42743;DHT22;28397;44.552;-0.848;2022-12-29T15:41:50;11.20;99.90
42743;DHT22;28397;44.552;-0.848;2022-12-29T15:44:45;11.20;99.90
42743;DHT22;28397;44.552;-0.848;2022-12-29T15:47:24;11.20;99.90
42743;DHT22;28397;44.552;-0.848;2022-12-29T15:49:53;11.20;99.90
42743;DHT22;28397;44.552;-0.848;2022-12-29T15:52:23;11.10;99.90
42743;DHT22;28397;44.552;-0.848;2022-12-29T15:54:51;11.10;99.90
42743;DHT22;28397;44.552;-0.848;2022-12-29T15:57:28;11.10;99.90
42743;DHT22;28397;44.552;-0.848;2022-12-29T15:59:55;11.00;99.90
42743;DHT22;28397;44.552;-0.848;2022-12-29T16:02:25;11.00;99.90
42743;DHT22;28397;44.552;-0.848;2022-12-29T16:04:51;11.00;99.90
42743;DHT22;28397;44.552;-0.848;2022-12-29T16:07:30;11.00;99.90
42743;DHT22;28397;44.552;-0.848;2022-12-29T16:09:58;10.90;99.90
42743;DHT22;28397;44.552;-0.848;2022-12-29T16:12:33;10.90;99.90
42743;DHT22;28397;44.552;-0.848;2022-12-29T16:15:02;10.90;99.90
42743;DHT22;28397;44.552;-0.848;2022-12-29T16:17:33;10.80;99.90
42743;DHT22;28397;44.552;-0.848;2022-12-29T16:20:05;10.80;99.90
42743;DHT22;28397;44.552;-0.848;2022-12-29T16:22:45;10.70;99.90
42743;DHT22;28397;44.552;-0.848;2022-12-29T16:25:20;10.70;99.90
42743;DHT22;28397;44.552;-0.848;2022-12-29T16:27:47;10.70;99.90
42743;DHT22;28397;44.552;-0.848;2022-12-29T16:32:49;10.60;99.90
42743;DHT22;28397;44.552;-0.848;2022-12-29T16:35:21;10.60;99.90
42743;DHT22;28397;44.552;-0.848;2022-12-29T16:37:49;10.60;99.90
42743;DHT22;28397;44.552;-0.848;2022-12-29T16:40:31;10.60;99.90
42743;DHT22;28397;44.552;-0.848;2022-12-29T16:43:00;10.60;99.90
42743;DHT22;28397;44.552;-0.848;2022-12-29T16:50:42;10.60;99.90
42743;DHT22;28397;44.552;-0.848;2022-12-29T16:53:24;10.50;99.90
42743;DHT22;28397;44.552;-0.848;2022-12-29T16:55:52;10.50;99.90
42743;DHT22;28397;44.552;-0.848;2022-12-29T16:58:26;10.50;99.90
42743;DHT22;28397;44.552;-0.848;2022-12-29T17:00:59;10.50;99.90
42743;DHT22;28397;44.552;-0.848;2022-12-29T17:03:37;10.50;99.90
42743;DHT22;28397;44.552;-0.848;2022-12-29T17:06:04;10.40;99.90
42743;DHT22;28397;44.552;-0.848;2022-12-29T17:08:40;10.50;99.90
42743;DHT22;28397;44.552;-0.848;2022-12-29T17:11:30;10.50;99.90
42743;DHT22;28397;44.552;-0.848;2022-12-29T17:16:48;10.40;99.90
42743;DHT22;28397;44.552;-0.848;2022-12-29T17:19:20;10.40;99.90
42743;DHT22;28397;44.552;-0.848;2022-12-29T17:21:46;10.40;99.90
42743;DHT22;28397;44.552;-0.848;2022-12-29T17:24:17;10.50;99.90
42743;DHT22;28397;44.552;-0.848;2022-12-29T17:26:45;10.50;99.90
42743;DHT22;28397;44.552;-0.848;2022-12-29T17:29:38;10.50;99.90
42743;DHT22;28397;44.552;-0.848;2022-12-29T17:32:06;10.50;99.90
42743;DHT22;28397;44.552;-0.848;2022-12-29T17:34:35;10.50;99.90
42743;DHT22;28397;44.552;-0.848;2022-12-29T17:37:00;10.50;99.90
42743;DHT22;28397;44.552;-0.848;2022-12-29T17:39:26;10.50;99.90
42743;DHT22;28397;44.552;-0.848;2022-12-29T17:41:52;10.50;99.90
42743;DHT22;28397;44.552;-0.848;2022-12-29T17:44:19;10.40;99.90
42743;DHT22;28397;44.552;-0.848;2022-12-29T17:46:47;10.40;99.90
42743;DHT22;28397;44.552;-0.848;2022-12-29T17:49:14;10.50;99.90
42743;DHT22;28397;44.552;-0.848;2022-12-29T17:51:44;10.50;99.90
42743;DHT22;28397;44.552;-0.848;2022-12-29T17:54:19;10.40;99.90
42743;DHT22;28397;44.552;-0.848;2022-12-29T17:56:46;10.50;99.90
42743;DHT22;28397;44.552;-0.848;2022-12-29T17:59:12;10.40;99.90
42743;DHT22;28397;44.552;-0.848;2022-12-29T18:01:43;10.40;99.90
42743;DHT22;28397;44.552;-0.848;2022-12-29T18:04:15;10.40;99.90
42743;DHT22;28397;44.552;-0.848;2022-12-29T18:06:41;10.50;99.90
42743;DHT22;28397;44.552;-0.848;2022-12-29T18:09:08;10.50;99.90
42743;DHT22;28397;44.552;-0.848;2022-12-29T18:11:37;10.50;99.90
42743;DHT22;28397;44.552;-0.848;2022-12-29T18:14:04;10.50;99.90
42743;DHT22;28397;44.552;-0.848;2022-12-29T18:16:30;10.50;99.90
42743;DHT22;28397;44.552;-0.848;2022-12-29T18:18:55;10.50;99.90
42743;DHT22;28397;44.552;-0.848;2022-12-29T18:21:22;10.50;99.90
42743;DHT22;28397;44.552;-0.848;2022-12-29T18:23:49;10.60;99.90
42743;DHT22;28397;44.552;-0.848;2022-12-29T18:26:17;10.50;99.90
42743;DHT22;28397;44.552;-0.848;2022-12-29T18:28:44;10.60;99.90
42743;DHT22;28397;44.552;-0.848;2022-12-29T18:31:21;10.60;99.90
42743;DHT22;28397;44.552;-0.848;2022-12-29T18:33:48;10.60;99.90
42743;DHT22;28397;44.552;-0.848;2022-12-29T18:36:16;10.60;99.90